Time;durP1;ratioP1;P1;durP2;ratioP2;P2;SDS_P1;SDS_P2;PMS_P1;PMS_P2;Temp;Humidity;BMP_temperature;BMP_pressure;BME280_temperature;BME280_humidity;BME280_pressure;Samples;Min_cycle;Max_cycle;Signal;HPM_P1;HPM_P2
2023/10/30 00:01:38;;;;;;;0.40;0.40;;;;;;;3.55;100.00;98280.94;5003659;28;20030;-71
2023/10/30 00:04:05;;;;;;;0.40;0.40;;;;;;;3.67;100.00;98294.47;5004963;28;20032;-71
2023/10/30 00:06:31;;;;;;;0.40;0.40;;;;;;;3.68;100.00;98296.16;5005142;28;20044;-72
2023/10/30 00:08:56;;;;;;;0.40;0.40;;;;;;;3.69;100.00;98297.88;5007053;28;20053;-72
2023/10/30 00:11:22;;;;;;;0.40;0.40;;;;;;;3.72;100.00;98298.66;5007846;28;20030;-72
2023/10/30 00:13:47;;;;;;;0.40;0.40;;;;;;;3.74;100.00;98305.50;5004840;28;20019;-71
2023/10/30 00:16:12;;;;;;;0.40;0.40;;;;;;;3.69;100.00;98292.75;5005013;28;20030;-72
2023/10/30 00:18:41;;;;;;;0.40;0.40;;;;;;;3.72;100.00;98308.94;5004735;28;20033;-72
2023/10/30 00:21:07;;;;;;;0.40;0.40;;;;;;;3.69;100.00;98300.44;5004590;28;20099;-72
2023/10/30 00:23:33;;;;;;;0.40;0.40;;;;;;;3.71;100.00;98296.13;5005547;28;20074;-72
2023/10/30 00:25:59;;;;;;;0.40;0.40;;;;;;;3.75;100.00;98314.91;5006918;28;20054;-72
2023/10/30 00:28:25;;;;;;;0.40;0.40;;;;;;;3.72;100.00;98306.34;5007077;28;20030;-71
2023/10/30 00:30:50;;;;;;;0.40;0.40;;;;;;;3.66;100.00;98293.63;4990976;28;20033;-71
2023/10/30 00:33:15;;;;;;;0.40;0.40;;;;;;;3.65;100.00;98301.34;5008091;28;20052;-71
2023/10/30 00:35:41;;;;;;;0.40;0.40;;;;;;;3.72;100.00;98308.94;5007865;28;20058;-72
2023/10/30 00:38:06;;;;;;;0.40;0.40;;;;;;;3.71;100.00;98301.25;5008037;28;20097;-71
2023/10/30 00:40:32;;;;;;;0.40;0.40;;;;;;;3.71;100.00;98303.81;5006595;28;20032;-71
2023/10/30 00:42:57;;;;;;;0.40;0.40;;;;;;;3.70;100.00;98304.69;5007772;28;20046;-71
2023/10/30 00:45:23;;;;;;;0.40;0.40;;;;;;;3.74;100.00;98308.06;5007518;28;20073;-71
2023/10/30 00:47:48;;;;;;;0.40;0.40;;;;;;;3.74;100.00;98308.91;5007485;28;20085;-71
2023/10/30 00:50:13;;;;;;;0.40;0.40;;;;;;;3.74;100.00;98308.91;5007941;28;20030;-71
2023/10/30 00:52:39;;;;;;;0.40;0.40;;;;;;;3.73;100.00;98309.78;5007901;28;20112;-71
2023/10/30 00:55:04;;;;;;;0.40;0.40;;;;;;;3.74;100.00;98310.63;5007646;28;20022;-71
2023/10/30 00:57:29;;;;;;;0.40;0.40;;;;;;;3.71;100.00;98304.69;5007594;28;20121;-71
2023/10/30 00:59:55;;;;;;;0.40;0.40;;;;;;;3.76;100.00;98306.31;5007886;28;20057;-71
2023/10/30 01:02:20;;;;;;;0.40;0.40;;;;;;;3.74;100.00;98301.19;5007657;28;20027;-71
2023/10/30 01:04:45;;;;;;;0.40;0.40;;;;;;;3.74;100.00;98295.25;5006464;28;20018;-70
2023/10/30 01:07:11;;;;;;;0.40;0.40;;;;;;;3.77;100.00;98306.28;5007547;28;20564;-70
2023/10/30 01:09:36;;;;;;;0.40;0.40;;;;;;;3.77;100.00;98311.44;5006326;28;20061;-70
2023/10/30 01:12:02;;;;;;;0.40;0.40;;;;;;;3.79;100.00;98308.84;5007502;28;20077;-70
2023/10/30 01:14:27;;;;;;;0.40;0.40;;;;;;;3.81;100.00;98319.94;5006161;28;20037;-70
2023/10/30 01:16:52;;;;;;;0.40;0.40;;;;;;;3.83;100.00;98316.47;5007592;28;20065;-71
2023/10/30 01:19:18;;;;;;;0.40;0.40;;;;;;;3.90;100.00;98319.78;5007247;28;20034;-70
2023/10/30 01:21:44;;;;;;;0.40;0.40;;;;;;;3.90;100.00;98317.22;5007351;28;20070;-71
2023/10/30 01:24:09;;;;;;;0.40;0.40;;;;;;;3.92;100.00;98327.47;5007377;28;20402;-70
2023/10/30 01:26:35;;;;;;;0.40;0.40;;;;;;;3.92;100.00;98323.19;5022346;28;20027;-70
2023/10/30 01:29:01;;;;;;;0.40;0.40;;;;;;;3.91;100.00;98320.66;5007467;28;20517;-71
2023/10/30 01:31:29;;;;;;;0.40;0.40;;;;;;;3.91;100.00;98325.78;5006168;28;20030;-70
2023/10/30 01:33:55;;;;;;;0.40;0.40;;;;;;;3.90;100.00;98322.38;5005514;28;20049;-70
2023/10/30 01:36:20;;;;;;;0.40;0.40;;;;;;;3.92;100.00;98320.63;5006174;28;20317;-71
2023/10/30 01:38:46;;;;;;;0.40;0.40;;;;;;;3.93;100.00;98313.78;5006983;28;20434;-70
2023/10/30 01:41:12;;;;;;;0.40;0.40;;;;;;;3.95;100.00;98323.16;5005694;28;20026;-70
2023/10/30 01:43:37;;;;;;;0.40;0.40;;;;;;;3.95;100.00;98320.59;5006873;28;20026;-70
2023/10/30 01:46:03;;;;;;;0.40;0.40;;;;;;;3.93;100.00;98322.31;5005522;28;20458;-70
2023/10/30 01:48:31;;;;;;;0.40;0.40;;;;;;;3.95;100.00;98325.72;5006554;28;20049;-70
2023/10/30 01:50:59;;;;;;;0.40;0.40;;;;;;;3.90;100.00;98319.78;5006630;28;20086;-70
2023/10/30 01:53:26;;;;;;;0.40;0.40;;;;;;;3.94;100.00;98321.47;5006489;28;20026;-70
2023/10/30 01:55:52;;;;;;;0.40;0.40;;;;;;;3.91;100.00;98320.66;5006707;28;20065;-70
2023/10/30 01:58:18;;;;;;;0.40;0.40;;;;;;;3.94;100.00;98320.59;5005131;28;20066;-71
2023/10/30 02:00:47;;;;;;;0.40;0.40;;;;;;;3.94;100.00;98324.03;5006376;28;20030;-71
2023/10/30 02:03:13;;;;;;;0.40;0.40;;;;;;;3.96;100.00;98319.69;5006467;28;20374;-71
2023/10/30 02:05:39;;;;;;;0.40;0.40;;;;;;;3.94;100.00;98318.03;5006354;28;20542;-71
2023/10/30 02:08:05;;;;;;;0.40;0.40;;;;;;;3.93;100.00;98309.47;5005284;28;20038;-71
2023/10/30 02:10:30;;;;;;;0.40;0.40;;;;;;;3.93;100.00;98311.22;5006422;28;20465;-71
2023/10/30 02:12:55;;;;;;;0.40;0.40;;;;;;;3.91;100.00;98315.53;5005085;28;20133;-71
2023/10/30 02:15:21;;;;;;;0.40;0.40;;;;;;;3.90;100.00;98312.09;5006380;28;20030;-71
2023/10/30 02:17:46;;;;;;;0.40;0.40;;;;;;;3.92;100.00;98312.06;5005026;28;20034;-71
2023/10/30 02:20:12;;;;;;;0.40;0.40;;;;;;;3.99;100.00;98323.09;5006219;28;20049;-71
2023/10/30 02:22:37;;;;;;;0.40;0.40;;;;;;;3.96;100.00;98324.84;5006000;28;20113;-71
2023/10/30 02:25:04;;;;;;;0.40;0.40;;;;;;;4.00;100.00;98319.66;5006327;28;20027;-71
2023/10/30 02:27:30;;;;;;;0.40;0.40;;;;;;;4.04;100.00;98323.88;5006192;28;20034;-72
2023/10/30 02:29:55;;;;;;;0.40;0.40;;;;;;;4.02;100.00;98310.22;5006278;28;20026;-71
2023/10/30 02:32:20;;;;;;;0.40;0.40;;;;;;;4.04;100.00;98322.16;5006046;28;20087;-71
2023/10/30 02:34:46;;;;;;;0.40;0.40;;;;;;;3.99;100.00;98313.69;5004440;28;20102;-70
2023/10/30 02:37:11;;;;;;;0.40;0.40;;;;;;;4.01;100.00;98316.25;5006141;28;20018;-70
2023/10/30 02:39:36;;;;;;;0.40;0.40;;;;;;;4.05;100.00;98323.88;5005816;28;20076;-70
2023/10/30 02:42:02;;;;;;;0.40;0.40;;;;;;;4.07;100.00;98319.53;5005976;28;20033;-71
2023/10/30 02:44:28;;;;;;;0.40;0.40;;;;;;;4.08;100.00;98333.22;5005843;28;20186;-71
2023/10/30 02:46:55;;;;;;;0.40;0.40;;;;;;;4.06;100.00;98327.25;5005653;28;20038;-70
2023/10/30 02:49:20;;;;;;;0.45;0.45;;;;;;;4.07;100.00;98326.41;5005482;28;20030;-71
2023/10/30 02:51:46;;;;;;;0.40;0.40;;;;;;;4.11;100.00;98330.63;5004577;28;20618;-71
2023/10/30 02:54:11;;;;;;;0.40;0.40;;;;;;;4.12;100.00;98331.47;5005636;28;20030;-70
2023/10/30 02:56:36;;;;;;;0.40;0.40;;;;;;;4.14;100.00;98329.75;5005671;28;20399;-70
2023/10/30 02:59:02;;;;;;;0.40;0.40;;;;;;;4.16;100.00;98336.53;5004194;28;20093;-71
2023/10/30 03:01:28;;;;;;;0.40;0.40;;;;;;;4.16;100.00;98330.53;5005546;28;20029;-70
2023/10/30 03:03:54;;;;;;;0.40;0.40;;;;;;;4.20;100.00;98329.63;5005245;28;20033;-70
2023/10/30 03:06:19;;;;;;;0.40;0.40;;;;;;;4.22;100.00;98330.44;5005408;28;20048;-71
2023/10/30 03:08:45;;;;;;;0.40;0.40;;;;;;;4.21;100.00;98332.19;5005682;28;20022;-71
2023/10/30 03:11:10;;;;;;;0.40;0.40;;;;;;;4.24;100.00;98338.97;5005492;28;20022;-70
2023/10/30 03:13:35;;;;;;;0.40;0.40;;;;;;;4.26;100.00;98338.94;5004171;28;20030;-70
2023/10/30 03:16:01;;;;;;;0.40;0.40;;;;;;;4.26;100.00;98331.25;5005520;28;20057;-70
2023/10/30 03:18:26;;;;;;;0.40;0.40;;;;;;;4.28;100.00;98344.91;5005174;28;20030;-71
2023/10/30 03:20:51;;;;;;;0.40;0.40;;;;;;;4.30;100.00;98345.72;5004399;28;20050;-71
2023/10/30 03:23:17;;;;;;;0.40;0.40;;;;;;;4.27;100.00;98333.78;5003964;28;20089;-70
2023/10/30 03:25:42;;;;;;;0.40;0.40;;;;;;;4.28;100.00;98340.63;5005191;28;20022;-70
2023/10/30 03:28:07;;;;;;;0.40;0.40;;;;;;;4.30;100.00;98356.00;5005493;28;20027;-70
2023/10/30 03:30:36;;;;;;;0.40;0.40;;;;;;;4.30;100.00;98343.16;5004060;28;20033;-69
2023/10/30 03:33:05;;;;;;;0.38;0.38;;;;;;;4.27;100.00;98353.47;4987493;28;20027;-70
2023/10/30 03:35:31;;;;;;;0.40;0.40;;;;;;;4.33;100.00;98358.53;5005092;28;20049;-70
2023/10/30 03:37:57;;;;;;;0.40;0.40;;;;;;;4.33;100.00;98361.94;5004976;28;20036;-70
2023/10/30 03:40:22;;;;;;;0.40;0.40;;;;;;;4.33;100.00;98353.38;5005052;28;20030;-70
2023/10/30 03:42:48;;;;;;;0.40;0.40;;;;;;;4.26;100.00;98332.09;5003645;28;20026;-70
2023/10/30 03:45:13;;;;;;;0.40;0.40;;;;;;;4.29;100.00;98347.47;5005100;28;20019;-69
2023/10/30 03:47:39;;;;;;;0.40;0.40;;;;;;;4.33;100.00;98361.09;5004946;28;20018;-71
2023/10/30 03:50:06;;;;;;;0.40;0.40;;;;;;;4.29;100.00;98359.44;5004777;28;20029;-70
2023/10/30 03:52:31;;;;;;;0.40;0.40;;;;;;;4.32;100.00;98351.69;5005080;28;20460;-71
2023/10/30 03:55:03;;;;;;;0.40;0.40;;;;;;;4.31;100.00;98350.84;5004832;28;20018;-70
2023/10/30 03:57:28;;;;;;;0.50;0.50;;;;;;;4.28;100.00;98350.06;5003412;28;20038;-70
2023/10/30 03:59:54;;;;;;;0.40;0.40;;;;;;;4.34;100.00;98352.53;5007996;28;20370;-71
2023/10/30 04:02:19;;;;;;;0.40;0.40;;;;;;;4.29;100.00;98339.75;5008475;28;20467;-71
2023/10/30 04:04:44;;;;;;;0.40;0.40;;;;;;;4.34;100.00;98350.78;5007252;28;20029;-71
2023/10/30 04:07:10;;;;;;;0.40;0.40;;;;;;;4.35;100.00;98354.22;5008592;28;20057;-70
2023/10/30 04:09:35;;;;;;;0.40;0.40;;;;;;;4.28;100.00;98347.50;5008478;28;20496;-70
2023/10/30 04:12:02;;;;;;;0.40;0.40;;;;;;;4.33;100.00;98343.97;5007114;28;20029;-71
2023/10/30 04:14:31;;;;;;;0.40;0.40;;;;;;;4.38;100.00;98356.72;5008462;28;20030;-70
2023/10/30 04:17:02;;;;;;;0.40;0.40;;;;;;;4.41;100.00;98354.09;5007271;28;20084;-70
2023/10/30 04:19:28;;;;;;;0.50;0.50;;;;;;;4.40;100.00;98352.44;5008502;28;20030;-70
2023/10/30 04:21:53;;;;;;;0.40;0.40;;;;;;;4.45;100.00;98365.19;5008328;28;20061;-70
2023/10/30 04:24:19;;;;;;;0.40;0.40;;;;;;;4.44;100.00;98361.78;5008534;28;20027;-70
2023/10/30 04:26:44;;;;;;;0.40;0.40;;;;;;;4.49;100.00;98366.84;5008488;28;20045;-70
2023/10/30 04:29:09;;;;;;;0.40;0.40;;;;;;;4.50;100.00;98365.13;5008227;28;20022;-70
2023/10/30 04:31:35;;;;;;;0.40;0.40;;;;;;;4.52;100.00;98368.53;5008443;28;20467;-69
2023/10/30 04:34:00;;;;;;;0.40;0.40;;;;;;;4.52;100.00;98364.22;5006954;28;20041;-70
2023/10/30 04:36:26;;;;;;;0.40;0.40;;;;;;;4.50;100.00;98360.84;5007276;28;20018;-70
2023/10/30 04:38:51;;;;;;;0.40;0.40;;;;;;;4.53;100.00;98371.06;5006941;28;20061;-71
2023/10/30 04:41:16;;;;;;;0.40;0.40;;;;;;;4.53;100.00;98354.78;5008274;28;20026;-71
2023/10/30 04:43:42;;;;;;;0.40;0.40;;;;;;;4.55;100.00;98358.19;5008111;28;20033;-70
2023/10/30 04:46:07;;;;;;;0.40;0.40;;;;;;;4.55;100.00;98355.63;5007993;28;20079;-71
2023/10/30 04:48:33;;;;;;;0.40;0.40;;;;;;;4.55;100.00;98363.31;5008022;28;20065;-70
2023/10/30 04:50:59;;;;;;;0.40;0.40;;;;;;;4.57;100.00;98356.41;5006707;28;20018;-71
2023/10/30 04:53:25;;;;;;;0.40;0.40;;;;;;;4.63;100.00;98369.19;5008031;28;20077;-70
2023/10/30 04:55:51;;;;;;;0.40;0.40;;;;;;;4.66;100.00;98358.00;5007846;28;20031;-70
2023/10/30 04:58:17;;;;;;;0.40;0.40;;;;;;;4.67;100.00;98360.53;5006929;28;20153;-71
2023/10/30 05:00:42;;;;;;;0.40;0.40;;;;;;;4.64;100.00;98360.59;5007823;28;20032;-70
2023/10/30 05:03:09;;;;;;;0.40;0.40;;;;;;;4.68;100.00;98361.41;5006428;28;20089;-70
2023/10/30 05:05:36;;;;;;;0.40;0.40;;;;;;;4.69;100.00;98366.50;5007801;28;20109;-69
2023/10/30 05:08:01;;;;;;;0.40;0.40;;;;;;;4.71;100.00;98359.59;5007816;28;20029;-71
2023/10/30 05:10:26;;;;;;;0.40;0.40;;;;;;;4.73;100.00;98366.47;5007670;28;20022;-70
2023/10/30 05:12:52;;;;;;;0.40;0.40;;;;;;;4.76;100.00;98367.22;5007516;28;20030;-71
2023/10/30 05:15:18;;;;;;;0.40;0.40;;;;;;;4.79;100.00;98359.47;5007868;28;20102;-70
2023/10/30 05:17:44;;;;;;;0.40;0.40;;;;;;;4.82;100.00;98358.59;5007409;28;20042;-70
2023/10/30 05:20:09;;;;;;;0.40;0.40;;;;;;;4.85;100.00;98355.94;5007383;28;20030;-71
2023/10/30 05:22:35;;;;;;;0.40;0.40;;;;;;;4.88;100.00;98352.47;5006669;28;20050;-69
2023/10/30 05:25:05;;;;;;;0.40;0.40;;;;;;;4.92;100.00;98359.28;5006672;28;20049;-70
2023/10/30 05:27:31;;;;;;;0.40;0.40;;;;;;;4.92;100.00;98348.97;5006429;28;20033;-70
2023/10/30 05:29:56;;;;;;;0.40;0.40;;;;;;;4.95;100.00;98360.03;5006475;28;20026;-71
2023/10/30 05:32:22;;;;;;;0.40;0.40;;;;;;;5.01;100.00;98359.09;5006164;28;20026;-70
2023/10/30 05:34:48;;;;;;;0.40;0.40;;;;;;;5.05;100.00;98371.00;5005711;28;20029;-70
2023/10/30 05:37:14;;;;;;;0.40;0.40;;;;;;;5.09;100.00;98369.22;5006166;28;20026;-70
2023/10/30 05:39:39;;;;;;;0.40;0.40;;;;;;;5.10;100.00;98370.91;5005498;28;20023;-69
2023/10/30 05:42:05;;;;;;;0.40;0.40;;;;;;;5.11;100.00;98364.91;5006325;28;20109;-69
2023/10/30 05:44:31;;;;;;;0.40;0.40;;;;;;;5.13;100.00;98370.84;5006342;28;20054;-71
2023/10/30 05:47:00;;;;;;;0.40;0.40;;;;;;;5.20;100.00;98375.03;5005083;28;20034;-70
2023/10/30 05:49:26;;;;;;;0.40;0.40;;;;;;;5.21;100.00;98378.44;5006192;28;20037;-69
2023/10/30 05:51:52;;;;;;;0.40;0.40;;;;;;;5.27;100.00;98380.88;5004234;28;20022;-69
2023/10/30 05:54:17;;;;;;;0.40;0.40;;;;;;;5.27;100.00;98372.34;5004859;28;20053;-69
2023/10/30 05:56:43;;;;;;;0.40;0.40;;;;;;;5.30;100.00;98375.66;5005776;28;20026;-69
2023/10/30 05:59:08;;;;;;;0.40;0.40;;;;;;;5.31;100.00;98379.97;5005813;28;20046;-69
2023/10/30 06:01:33;;;;;;;0.40;0.40;;;;;;;5.33;100.00;98388.50;5005996;28;20463;-70
2023/10/30 06:03:59;;;;;;;0.40;0.40;;;;;;;5.32;100.00;98391.94;5005542;28;20053;-70
2023/10/30 06:06:25;;;;;;;0.40;0.40;;;;;;;5.33;100.00;98382.50;5006016;28;20042;-69
2023/10/30 06:08:50;;;;;;;0.40;0.40;;;;;;;5.35;100.00;98397.91;5005960;28;20094;-70
2023/10/30 06:11:16;;;;;;;0.38;0.38;;;;;;;5.36;100.00;98387.59;5004477;28;20037;-69
2023/10/30 06:13:41;;;;;;;0.40;0.40;;;;;;;5.40;100.00;98394.34;5005886;28;20030;-69
2023/10/30 06:16:13;;;;;;;0.40;0.40;;;;;;;5.42;100.00;98396.91;5005594;28;20585;-69
2023/10/30 06:18:39;;;;;;;0.50;0.50;;;;;;;5.44;100.00;98390.84;5005555;28;20103;-69
2023/10/30 06:21:07;;;;;;;0.40;0.40;;;;;;;5.46;100.00;98393.41;5005282;28;20050;-69
2023/10/30 06:23:35;;;;;;;0.40;0.40;;;;;;;5.46;100.00;98389.09;4956704;28;1434596;-70
2023/10/30 06:26:07;;;;;;;0.40;0.40;;;;;;;5.49;100.00;98397.63;5006289;28;20061;-70
2023/10/30 06:28:33;;;;;;;0.40;0.40;;;;;;;5.54;100.00;98398.41;5006370;28;20031;-70
2023/10/30 06:30:59;;;;;;;0.40;0.40;;;;;;;5.55;100.00;98400.06;5005012;28;20030;-70
2023/10/30 06:33:24;;;;;;;0.40;0.40;;;;;;;5.55;100.00;98394.94;5006097;28;20053;-69
2023/10/30 06:35:56;;;;;;;0.40;0.40;;;;;;;5.57;100.00;98401.72;5006026;28;20050;-69
2023/10/30 06:38:21;;;;;;;0.50;0.50;;;;;;;5.60;100.00;98400.84;5005952;28;20037;-69
2023/10/30 06:40:48;;;;;;;0.40;0.40;;;;;;;5.66;100.00;98411.00;5005916;28;20033;-69
2023/10/30 06:43:13;;;;;;;0.40;0.40;;;;;;;5.71;100.00;98413.47;5006047;28;20037;-70
2023/10/30 06:45:39;;;;;;;0.40;0.40;;;;;;;5.76;100.00;98410.81;5005897;28;20022;-70
2023/10/30 06:48:04;;;;;;;0.40;0.40;;;;;;;5.79;100.00;98413.31;5005556;28;20025;-69
2023/10/30 06:50:30;;;;;;;0.40;0.40;;;;;;;5.80;100.00;98407.28;5005385;28;20031;-70
2023/10/30 06:52:55;;;;;;;0.40;0.40;;;;;;;5.87;100.00;98414.00;5005798;28;20030;-69
2023/10/30 06:55:20;;;;;;;0.40;0.40;;;;;;;5.92;100.00;98411.34;5005871;28;20102;-69
2023/10/30 06:57:46;;;;;;;0.35;0.35;;;;;;;5.97;100.00;98411.25;5004667;28;20089;-69
2023/10/30 07:00:12;;;;;;;0.35;0.35;;;;;;;6.02;100.00;98407.66;5005740;28;20049;-69
2023/10/30 07:02:37;;;;;;;0.40;0.40;;;;;;;6.05;100.00;98415.34;5005834;28;20020;-70
2023/10/30 07:05:03;;;;;;;0.40;0.40;;;;;;;6.06;100.00;98411.06;5005836;28;20038;-69
2023/10/30 07:07:28;;;;;;;0.30;0.30;;;;;;;6.11;100.00;98422.13;5005756;28;20030;-69
2023/10/30 07:09:53;;;;;;;0.40;0.40;;;;;;;6.17;100.00;98421.97;5005846;28;20033;-70
2023/10/30 07:12:19;;;;;;;0.40;0.40;;;;;;;6.23;100.00;98425.31;5005819;28;20029;-69
2023/10/30 07:14:44;;;;;;;0.40;0.40;;;;;;;6.26;100.00;98426.06;5005574;28;20027;-69
2023/10/30 07:17:10;;;;;;;0.40;0.40;;;;;;;6.33;100.00;98429.34;5004345;28;20086;-71
2023/10/30 07:19:35;;;;;;;0.40;0.40;;;;;;;6.37;100.00;98425.00;5004331;28;20054;-70
2023/10/30 07:22:02;;;;;;;0.40;0.40;;;;;;;6.40;100.00;98430.94;5005368;28;20054;-69
2023/10/30 07:24:27;;;;;;;0.40;0.40;;;;;;;6.39;100.00;98426.63;5005718;28;20034;-70
2023/10/30 07:26:53;;;;;;;0.40;0.40;;;;;;;6.43;100.00;98433.44;5005962;28;20029;-70
2023/10/30 07:29:18;;;;;;;0.40;0.40;;;;;;;6.45;100.00;98431.66;5005745;28;20514;-70
2023/10/30 07:31:43;;;;;;;0.40;0.40;;;;;;;6.50;100.00;98433.28;5005646;28;20081;-70
2023/10/30 07:34:09;;;;;;;0.40;0.40;;;;;;;6.51;100.00;98442.69;5007168;28;20026;-69
2023/10/30 07:36:34;;;;;;;0.40;0.40;;;;;;;6.52;100.00;98441.81;5009397;28;20030;-70
2023/10/30 07:39:00;;;;;;;0.40;0.40;;;;;;;6.60;100.00;98457.13;5008184;28;20044;-70
2023/10/30 07:41:25;;;;;;;0.40;0.40;;;;;;;6.62;100.00;98443.31;5009397;28;20022;-70
2023/10/30 07:43:50;;;;;;;0.40;0.40;;;;;;;6.68;100.00;98453.47;5009611;28;20065;-69
2023/10/30 07:46:16;;;;;;;0.40;0.40;;;;;;;6.74;100.00;98446.47;5009329;28;20018;-70
2023/10/30 07:48:41;;;;;;;0.40;0.40;;;;;;;6.77;100.00;98451.56;5009273;28;20018;-70
2023/10/30 07:51:06;;;;;;;0.40;0.40;;;;;;;6.81;100.00;98453.16;5009510;28;20057;-70
2023/10/30 07:53:32;;;;;;;0.30;0.30;;;;;;;6.85;100.00;98451.38;5007924;28;20027;-68
2023/10/30 07:55:57;;;;;;;0.40;0.40;;;;;;;6.89;100.00;98459.00;5009294;28;20045;-70
2023/10/30 07:58:22;;;;;;;0.40;0.40;;;;;;;6.91;100.00;98451.22;5009038;28;20086;-69
2023/10/30 08:00:48;;;;;;;0.32;0.32;;;;;;;6.94;100.00;98446.84;5009343;28;20036;-69
2023/10/30 08:03:14;;;;;;;0.40;0.40;;;;;;;7.03;100.00;98456.06;5009132;28;20076;-69
2023/10/30 08:05:40;;;;;;;0.50;0.50;;;;;;;7.05;100.00;98456.88;5007575;28;20018;-69
2023/10/30 08:08:06;;;;;;;0.30;0.30;;;;;;;7.06;100.00;98455.16;5007740;28;20038;-69
2023/10/30 08:10:31;;;;;;;0.30;0.30;;;;;;;7.11;100.00;98457.59;5009112;28;20030;-70
2023/10/30 08:12:57;;;;;;;0.40;0.40;;;;;;;7.17;100.00;98460.03;5009080;28;20025;-69
2023/10/30 08:15:22;;;;;;;0.40;0.40;;;;;;;7.19;100.00;98455.66;5007557;28;20033;-69
2023/10/30 08:17:47;;;;;;;0.30;0.30;;;;;;;7.23;100.00;98453.84;5007655;28;20026;-68
2023/10/30 08:20:13;;;;;;;0.40;0.40;;;;;;;7.29;100.00;98464.00;5008759;28;20027;-70
2023/10/30 08:22:38;;;;;;;0.30;0.30;;;;;;;7.32;100.00;98458.75;5007515;28;20131;-69
2023/10/30 08:25:04;;;;;;;0.40;0.40;;;;;;;7.36;100.00;98455.22;5008649;28;20022;-69
2023/10/30 08:27:30;;;;;;;0.30;0.30;;;;;;;7.41;100.00;98465.44;5007338;28;20476;-70
2023/10/30 08:29:55;;;;;;;0.40;0.40;;;;;;;7.45;100.00;98454.13;5008746;28;20022;-70
2023/10/30 08:32:21;;;;;;;0.30;0.30;;;;;;;7.48;100.00;98450.59;5008695;28;20026;-69
2023/10/30 08:34:46;;;;;;;0.40;0.40;;;;;;;7.53;100.00;98459.06;5006934;28;20037;-69
2023/10/30 08:37:11;;;;;;;0.38;0.38;;;;;;;7.54;100.00;98453.88;5008411;28;20034;-71
2023/10/30 08:39:37;;;;;;;0.40;0.40;;;;;;;7.63;100.00;98463.13;5008493;28;20533;-69
2023/10/30 08:42:03;;;;;;;0.40;0.40;;;;;;;7.65;100.00;98453.56;5007128;28;20037;-69
2023/10/30 08:44:31;;;;;;;0.30;0.30;;;;;;;7.74;100.00;98456.78;5006872;28;20038;-70
2023/10/30 08:46:56;;;;;;;0.40;0.40;;;;;;;7.79;100.00;98452.34;5006908;28;20023;-69
2023/10/30 08:49:22;;;;;;;0.30;0.30;;;;;;;7.85;100.00;98465.09;5008098;28;20092;-69
2023/10/30 08:51:47;;;;;;;0.35;0.35;;;;;;;7.89;100.00;98461.50;5006889;28;20022;-71
2023/10/30 08:54:13;;;;;;;0.40;0.40;;;;;;;7.96;100.00;98462.19;5008171;28;20390;-68
2023/10/30 08:56:39;;;;;;;0.40;0.40;;;;;;;8.07;100.00;98461.88;5008262;28;20053;-69
2023/10/30 08:59:05;;;;;;;0.40;0.40;;;;;;;8.18;100.00;98467.56;5008086;28;20023;-69
2023/10/30 09:01:33;;;;;;;0.30;0.30;;;;;;;8.28;100.00;98462.13;5008120;28;20033;-70
2023/10/30 09:03:59;;;;;;;0.40;0.40;;;;;;;8.43;100.00;98469.41;5006424;28;20112;-70
2023/10/30 09:06:26;;;;;;;0.30;0.30;;;;;;;8.55;100.00;98464.78;5008002;28;20033;-69
2023/10/30 09:08:52;;;;;;;0.30;0.30;;;;;;;8.66;100.00;98469.59;5008012;28;20134;-69
2023/10/30 09:11:18;;;;;;;0.38;0.38;;;;;;;8.85;100.00;98476.78;5006715;28;20018;-68
2023/10/30 09:13:43;;;;;;;0.40;0.40;;;;;;;8.95;100.00;98469.56;5007815;28;20032;-70
2023/10/30 09:16:08;;;;;;;0.30;0.30;;;;;;;9.12;100.00;98475.00;5007502;28;20027;-68
2023/10/30 09:18:35;;;;;;;0.40;0.40;;;;;;;9.29;100.00;98465.84;5007334;28;20026;-69
2023/10/30 09:21:00;;;;;;;0.30;0.30;;;;;;;9.44;100.00;98466.22;5007667;28;20029;-69
2023/10/30 09:23:26;;;;;;;0.30;0.30;;;;;;;9.61;100.00;98457.84;5007597;28;20050;-70
2023/10/30 09:25:51;;;;;;;0.30;0.30;;;;;;;9.72;100.00;98460.03;5007644;28;20026;-69
2023/10/30 09:28:16;;;;;;;0.30;0.30;;;;;;;9.81;100.00;98470.06;5007438;28;20027;-70
2023/10/30 09:30:42;;;;;;;0.30;0.30;;;;;;;9.81;100.00;98467.47;5007687;28;20107;-71
2023/10/30 09:33:07;;;;;;;0.30;0.30;;;;;;;9.86;100.00;98475.06;5007699;28;20122;-70
2023/10/30 09:35:34;;;;;;;0.30;0.30;;;;;;;9.85;100.00;98482.03;5007171;28;20027;-70
2023/10/30 09:37:59;;;;;;;0.30;0.30;;;;;;;9.81;100.00;98477.84;5007541;28;20379;-69
2023/10/30 09:40:28;;;;;;;0.30;0.30;;;;;;;9.76;100.00;98478.00;5006129;28;20501;-69
2023/10/30 09:42:55;;;;;;;0.30;0.30;;;;;;;9.74;100.00;98484.16;5007581;28;20022;-69
2023/10/30 09:45:24;;;;;;;0.30;0.30;;;;;;;9.66;100.00;98482.66;5007338;28;20029;-70
2023/10/30 09:47:54;;;;;;;0.30;0.30;;;;;;;9.66;100.00;98492.19;5007247;28;20030;-68
2023/10/30 09:50:21;;;;;;;0.30;0.30;;;;;;;9.60;100.00;98469.94;5006946;28;20034;-70
2023/10/30 09:52:48;;;;;;;0.40;0.40;;;;;;;9.59;100.00;98483.78;5005937;28;20114;-70
2023/10/30 09:55:17;;;;;;;0.30;0.30;;;;;;;9.51;100.00;98468.53;5007129;28;20058;-70
2023/10/30 09:57:43;;;;;;;0.30;0.30;;;;;;;9.59;100.00;98481.19;5006281;28;20454;-69
2023/10/30 10:00:08;;;;;;;0.30;0.30;;;;;;;9.60;100.00;98484.66;5007000;28;20034;-69
2023/10/30 10:02:34;;;;;;;0.30;0.30;;;;;;;9.60;100.00;98482.88;4989422;28;20094;-69
2023/10/30 10:05:00;;;;;;;0.30;0.30;;;;;;;9.64;100.00;98486.22;5005459;28;20029;-71
2023/10/30 10:07:26;;;;;;;0.30;0.30;;;;;;;9.67;100.00;98474.00;5006937;28;20026;-69
2023/10/30 10:10:02;;;;;;;0.30;0.30;;;;;;;9.76;100.00;98485.78;5006884;28;20405;-69
2023/10/30 10:12:31;;;;;;;0.30;0.30;;;;;;;9.82;100.00;98486.47;5006880;28;20022;-70
2023/10/30 10:14:57;;;;;;;0.30;0.30;;;;;;;9.85;100.00;98482.03;5006523;28;20031;-70
2023/10/30 10:17:23;;;;;;;0.30;0.30;;;;;;;9.88;100.00;98491.41;5006655;28;20041;-70
2023/10/30 10:19:49;;;;;;;0.40;0.40;;;;;;;9.86;100.00;98488.88;5006428;28;20057;-70
2023/10/30 10:22:28;;;;;;;0.30;0.30;;;;;;;9.90;100.00;98498.22;5006516;28;20074;-70
2023/10/30 10:24:54;;;;;;;0.30;0.30;;;;;;;9.87;100.00;98476.78;5006619;28;20022;-71
2023/10/30 10:27:20;;;;;;;0.30;0.30;;;;;;;9.90;100.00;98485.25;5006711;28;20032;-70
2023/10/30 10:29:52;;;;;;;0.30;0.30;;;;;;;9.94;100.00;98487.75;5005150;28;20042;-71
2023/10/30 10:32:17;;;;;;;0.30;0.30;;;;;;;9.96;100.00;98484.22;5006468;28;20022;-70
2023/10/30 10:34:46;;;;;;;0.30;0.30;;;;;;;10.00;100.00;98488.38;5004895;28;20029;-70
2023/10/30 10:37:19;;;;;;;0.30;0.30;;;;;;;10.02;100.00;98490.91;5004898;28;20034;-70
2023/10/30 10:39:53;;;;;;;0.30;0.30;;;;;;;10.06;100.00;98489.91;5005148;28;20023;-70
2023/10/30 10:42:20;;;;;;;0.30;0.30;;;;;;;10.11;100.00;98487.97;5005287;28;20065;-71
2023/10/30 10:44:46;;;;;;;0.30;0.30;;;;;;;10.14;100.00;98480.06;5006303;28;20018;-70
2023/10/30 10:47:12;;;;;;;0.30;0.30;;;;;;;10.12;100.00;98484.50;5004773;28;20041;-70
2023/10/30 10:49:38;;;;;;;0.30;0.30;;;;;;;10.17;100.00;98477.38;5005996;28;20022;-70
2023/10/30 10:52:10;;;;;;;0.30;0.30;;;;;;;10.19;100.00;98481.66;5006149;28;20022;-71
2023/10/30 10:54:43;;;;;;;0.30;0.30;;;;;;;10.20;100.00;98471.22;5005978;28;20033;-69
2023/10/30 10:57:08;;;;;;;0.30;0.30;;;;;;;10.31;100.00;98468.22;5006087;28;20042;-71
2023/10/30 10:59:36;;;;;;;0.35;0.35;;;;;;;10.63;100.00;98476.53;5005963;28;20241;-70
2023/10/30 11:02:08;;;;;;;0.63;0.63;;;;;;;10.74;100.00;98483.88;5005994;28;20026;-71
2023/10/30 11:04:34;;;;;;;0.32;0.32;;;;;;;10.80;100.00;98481.94;5005925;28;20022;-71
2023/10/30 11:07:06;;;;;;;0.30;0.30;;;;;;;10.79;100.00;98475.91;5005920;28;20022;-72
2023/10/30 11:09:44;;;;;;;0.40;0.40;;;;;;;10.80;100.00;98474.16;5004721;28;20331;-72
2023/10/30 11:12:38;;;;;;;3.83;2.70;;;;;;;10.77;100.00;98486.34;5006063;28;20057;-71
2023/10/30 11:15:20;;;;;;;0.30;0.30;;;;;;;10.70;100.00;98473.69;5005715;28;20059;-71
2023/10/30 11:18:24;;;;;;;0.30;0.30;;;;;;;10.71;100.00;98483.16;5005881;28;20037;-72
2023/10/30 11:21:16;;;;;;;0.30;0.30;;;;;;;10.57;100.00;98462.94;5005739;28;20018;-72
2023/10/30 11:23:44;;;;;;;0.40;0.40;;;;;;;10.62;100.00;98477.41;5005804;28;20050;-70
2023/10/30 11:26:28;;;;;;;0.28;0.28;;;;;;;10.91;100.00;98470.22;5004413;28;20038;-73
2023/10/30 11:28:54;;;;;;;0.30;0.30;;;;;;;11.10;100.00;98459.06;5005772;28;20026;-72